Time,TemperatureF,DewpointF,PressureIn,WindDirection,WindDirectionDegrees,WindSpeedMPH,WindSpeedGustMPH,Humidity,HourlyPrecipIn,Conditions,Clouds,dailyrainin,SoftwareType,DateUTC
2013-03-29 00:04:00,59.7,32.0,29.59,NW,315,7.8,7.8,35,0.00,,---,0.00,VWS V14.01,2013-03-29 05:04:00,
2013-03-29 00:05:00,59.4,32.4,29.56,NW,315,7.8,7.8,36,0.00,,---,0.00,VWS V14.01,2013-03-29 05:05:00,
2013-03-29 00:10:00,59.5,31.9,29.59,NW,315,7.8,7.8,35,0.00,,---,0.00,VWS V14.01,2013-03-29 05:10:00,
2013-03-29 00:15:00,59.5,31.9,29.59,NW,315,7.8,7.8,35,0.00,,---,0.00,VWS V14.01,2013-03-29 05:15:00,
2013-03-29 00:20:00,59.4,32.4,29.56,NW,315,7.8,7.8,36,0.00,,---,0.00,VWS V14.01,2013-03-29 05:20:00,
2013-03-29 00:25:00,59.2,32.3,29.56,NW,315,7.8,7.8,36,0.00,,---,0.00,VWS V14.01,2013-03-29 05:25:00,
2013-03-29 00:30:00,59.2,32.3,29.56,NW,315,7.8,7.8,36,0.00,,---,0.00,VWS V14.01,2013-03-29 05:30:00,
2013-03-29 00:35:00,59.4,32.4,29.56,NW,315,7.8,7.8,36,0.00,,---,0.00,VWS V14.01,2013-03-29 05:35:00,
2013-03-29 00:40:00,59.4,32.4,29.56,NW,315,7.8,7.8,36,0.00,,---,0.00,VWS V14.01,2013-03-29 05:40:00,
2013-03-29 00:45:00,59.4,32.4,29.56,NW,315,7.8,7.8,36,0.00,,---,0.00,VWS V14.01,2013-03-29 05:45:00,
2013-03-29 00:50:00,59.4,32.4,29.56,NW,315,7.8,7.8,36,0.00,,---,0.00,VWS V14.01,2013-03-29 05:50:00,
2013-03-29 00:55:00,57.6,33.4,29.59,NW,315,7.8,7.8,40,0.00,,---,0.00,VWS V14.01,2013-03-29 05:55:00,
2013-03-29 00:56:00,59.4,32.4,29.56,NW,315,7.8,7.8,36,0.00,,---,0.00,VWS V14.01,2013-03-29 05:56:00,
2013-03-29 01:00:00,57.6,34.1,29.59,NW,315,7.8,7.8,41,0.00,,---,0.00,VWS V14.01,2013-03-29 06:00:00,
2013-03-29 01:02:00,59.4,32.4,29.56,NW,315,7.8,7.8,36,0.00,,---,0.00,VWS V14.01,2013-03-29 06:02:00,
2013-03-29 01:05:00,57.6,33.4,29.56,NW,315,7.8,7.8,40,0.00,,---,0.00,VWS V14.01,2013-03-29 06:05:00,
2013-03-29 01:07:00,59.4,32.4,29.56,NW,315,7.8,7.8,36,0.00,,---,0.00,VWS V14.01,2013-03-29 06:07:00,
2013-03-29 01:10:00,57.4,33.3,29.56,NW,315,7.8,7.8,40,0.00,,---,0.00,VWS V14.01,2013-03-29 06:10:00,
2013-03-29 01:12:00,59.4,32.4,29.56,NW,315,7.8,7.8,36,0.00,,---,0.00,VWS V14.01,2013-03-29 06:12:00,
2013-03-29 01:15:00,57.4,33.3,29.56,NW,315,7.8,7.8,40,0.00,,---,0.00,VWS V14.01,2013-03-29 06:15:00,
2013-03-29 01:17:00,59.4,32.4,29.56,NW,315,7.8,7.8,36,0.00,,---,0.00,VWS V14.01,2013-03-29 06:17:00,
2013-03-29 01:20:00,57.4,33.3,29.56,NW,315,7.8,7.8,40,0.00,,---,0.00,VWS V14.01,2013-03-29 06:20:00,
2013-03-29 01:23:00,59.4,33.1,29.56,NW,315,7.8,7.8,37,0.00,,---,0.00,VWS V14.01,2013-03-29 06:23:00,
2013-03-29 01:25:00,57.2,34.9,29.56,NW,315,7.8,7.8,43,0.00,,---,0.00,VWS V14.01,2013-03-29 06:25:00,
2013-03-29 01:28:00,59.2,32.3,29.56,NW,315,7.8,7.8,36,0.00,,---,0.00,VWS V14.01,2013-03-29 06:28:00,
2013-03-29 01:30:00,57.4,33.9,29.56,NW,315,7.8,7.8,41,0.00,,---,0.00,VWS V14.01,2013-03-29 06:30:00,
2013-03-29 01:33:00,59.0,32.8,29.56,NW,315,7.8,7.8,37,0.00,,---,0.00,VWS V14.01,2013-03-29 06:33:00,
2013-03-29 01:35:00,57.4,35.1,29.56,NW,315,7.8,7.8,43,0.00,,---,0.00,VWS V14.01,2013-03-29 06:35:00,
2013-03-29 01:38:00,58.6,33.8,29.56,NW,315,7.8,7.8,39,0.00,,---,0.00,VWS V14.01,2013-03-29 06:38:00,
2013-03-29 01:40:00,57.2,34.3,29.56,NW,315,7.8,7.8,42,0.00,,---,0.00,VWS V14.01,2013-03-29 06:40:00,
2013-03-29 01:43:00,58.5,33.6,29.56,NW,315,7.8,7.8,39,0.00,,---,0.00,VWS V14.01,2013-03-29 06:43:00,
2013-03-29 01:45:00,57.4,34.5,29.56,NW,315,7.8,7.8,42,0.00,,---,0.00,VWS V14.01,2013-03-29 06:45:00,
2013-03-29 01:48:00,57.9,34.4,29.59,NW,315,7.8,7.8,41,0.00,,---,0.00,VWS V14.01,2013-03-29 06:48:00,
2013-03-29 01:50:00,57.4,33.9,29.56,NW,315,7.8,7.8,41,0.00,,---,0.00,VWS V14.01,2013-03-29 06:50:00,
2013-03-29 01:53:00,57.6,33.4,29.59,NW,315,7.8,7.8,40,0.00,,---,0.00,VWS V14.01,2013-03-29 06:53:00,
2013-03-29 01:55:00,57.2,34.3,29.56,NW,315,7.8,7.8,42,0.00,,---,0.00,VWS V14.01,2013-03-29 06:55:00,
2013-03-29 01:58:00,57.6,33.4,29.59,NW,315,7.8,7.8,40,0.00,,---,0.00,VWS V14.01,2013-03-29 06:58:00,
2013-03-29 02:00:00,57.0,34.2,29.56,NW,315,7.8,7.8,42,0.00,,---,0.00,VWS V14.01,2013-03-29 07:00:00,
2013-03-29 02:03:00,57.6,33.4,29.56,NW,315,7.8,7.8,40,0.00,,---,0.00,VWS V14.01,2013-03-29 07:03:00,
2013-03-29 02:05:00,56.8,34.0,29.56,NW,315,7.8,7.8,42,0.00,,---,0.00,VWS V14.01,2013-03-29 07:05:00,
2013-03-29 02:08:00,57.4,33.3,29.56,NW,315,7.8,7.8,40,0.00,,---,0.00,VWS V14.01,2013-03-29 07:08:00,
2013-03-29 02:10:00,56.7,33.8,29.56,NW,315,7.8,7.8,42,0.00,,---,0.00,VWS V14.01,2013-03-29 07:10:00,
2013-03-29 02:14:00,57.4,33.3,29.56,NW,315,7.8,7.8,40,0.00,,---,0.00,VWS V14.01,2013-03-29 07:14:00,
2013-03-29 02:15:00,56.3,35.2,29.56,NW,315,7.8,7.8,45,0.00,,---,0.00,VWS V14.01,2013-03-29 07:15:00,
2013-03-29 02:19:00,57.4,33.3,29.56,NW,315,7.8,7.8,40,0.00,,---,0.00,VWS V14.01,2013-03-29 07:19:00,
2013-03-29 02:20:00,55.9,34.4,29.56,NW,315,7.8,7.8,44,0.00,,---,0.00,VWS V14.01,2013-03-29 07:20:00,
2013-03-29 02:24:00,57.2,34.9,29.56,NW,315,7.8,7.8,43,0.00,,---,0.00,VWS V14.01,2013-03-29 07:24:00,
2013-03-29 02:25:00,55.8,35.3,29.56,NW,315,7.8,7.8,46,0.00,,---,0.00,VWS V14.01,2013-03-29 07:25:00,
2013-03-29 02:29:00,57.4,35.7,29.56,NW,315,7.8,7.8,44,0.00,,---,0.00,VWS V14.01,2013-03-29 07:29:00,
2013-03-29 02:30:00,55.6,34.6,29.56,NW,315,7.8,7.8,45,0.00,,---,0.00,VWS V14.01,2013-03-29 07:30:00,
2013-03-29 02:34:00,57.4,35.1,29.56,NW,315,7.8,7.8,43,0.00,,---,0.00,VWS V14.01,2013-03-29 07:34:00,
2013-03-29 02:35:00,55.6,34.6,29.53,NW,315,7.8,7.8,45,0.00,,---,0.00,VWS V14.01,2013-03-29 07:35:00,
2013-03-29 02:39:00,57.4,33.9,29.56,NW,315,7.8,7.8,41,0.00,,---,0.00,VWS V14.01,2013-03-29 07:39:00,
2013-03-29 02:40:00,55.6,34.6,29.53,NW,315,7.8,7.8,45,0.00,,---,0.00,VWS V14.01,2013-03-29 07:40:00,
2013-03-29 02:44:00,57.4,33.9,29.56,NW,315,7.8,7.8,41,0.00,,---,0.00,VWS V14.01,2013-03-29 07:44:00,
2013-03-29 02:45:00,55.6,35.2,29.53,NW,315,7.8,7.8,46,0.00,,---,0.00,VWS V14.01,2013-03-29 07:45:00,
2013-03-29 02:49:00,57.4,33.9,29.56,NW,315,7.8,7.8,41,0.00,,---,0.00,VWS V14.01,2013-03-29 07:49:00,
2013-03-29 02:50:00,55.6,34.6,29.56,NW,315,7.8,7.8,45,0.00,,---,0.00,VWS V14.01,2013-03-29 07:50:00,
2013-03-29 02:55:00,57.2,34.3,29.56,NW,315,7.8,7.8,42,0.00,,---,0.00,VWS V14.01,2013-03-29 07:55:00,
2013-03-29 03:00:00,57.0,34.2,29.56,NW,315,7.8,7.8,42,0.00,,---,0.00,VWS V14.01,2013-03-29 08:00:00,
2013-03-29 03:05:00,56.7,33.8,29.56,NW,315,7.8,7.8,42,0.00,,---,0.00,VWS V14.01,2013-03-29 08:05:00,
2013-03-29 03:10:00,56.7,33.8,29.56,NW,315,7.8,7.8,42,0.00,,---,0.00,VWS V14.01,2013-03-29 08:10:00,
2013-03-29 03:15:00,56.3,35.2,29.56,NW,315,7.8,7.8,45,0.00,,---,0.00,VWS V14.01,2013-03-29 08:15:00,
2013-03-29 03:20:00,55.9,34.9,29.56,NW,315,7.8,7.8,45,0.00,,---,0.00,VWS V14.01,2013-03-29 08:20:00,
2013-03-29 03:25:00,55.8,35.3,29.56,NW,315,7.8,7.8,46,0.00,,---,0.00,VWS V14.01,2013-03-29 08:25:00,
2013-03-29 03:30:00,55.6,34.6,29.56,NW,315,7.8,7.8,45,0.00,,---,0.00,VWS V14.01,2013-03-29 08:30:00,
2013-03-29 03:35:00,55.6,34.6,29.53,NW,315,7.8,7.8,45,0.00,,---,0.00,VWS V14.01,2013-03-29 08:35:00,
2013-03-29 03:40:00,55.6,35.7,29.53,NW,315,7.8,7.8,47,0.00,,---,0.00,VWS V14.01,2013-03-29 08:40:00,
2013-03-29 03:45:00,55.6,34.6,29.53,NW,315,7.8,7.8,45,0.00,,---,0.00,VWS V14.01,2013-03-29 08:45:00,
2013-03-29 03:50:00,55.6,34.6,29.56,NW,315,7.8,7.8,45,0.00,,---,0.00,VWS V14.01,2013-03-29 08:50:00,
2013-03-29 03:55:00,54.5,34.2,29.56,NW,315,7.8,7.8,46,0.00,,---,0.00,VWS V14.01,2013-03-29 08:55:00,
2013-03-29 03:56:00,55.8,34.8,29.56,NW,315,7.8,7.8,45,0.00,,---,0.00,VWS V14.01,2013-03-29 08:56:00,
2013-03-29 04:00:00,54.3,34.0,29.56,NW,315,7.8,7.8,46,0.00,,---,0.00,VWS V14.01,2013-03-29 09:00:00,
2013-03-29 04:01:00,55.6,35.2,29.56,NW,315,7.8,7.8,46,0.00,,---,0.00,VWS V14.01,2013-03-29 09:01:00,
2013-03-29 04:05:00,54.3,34.5,29.56,NW,315,7.8,7.8,47,0.00,,---,0.00,VWS V14.01,2013-03-29 09:05:00,
2013-03-29 04:06:00,55.6,35.7,29.56,NW,315,7.8,7.8,47,0.00,,---,0.00,VWS V14.01,2013-03-29 09:06:00,
2013-03-29 04:10:00,54.3,34.5,29.56,NW,315,7.8,7.8,47,0.00,,---,0.00,VWS V14.01,2013-03-29 09:10:00,
2013-03-29 04:11:00,55.6,35.2,29.56,NW,315,7.8,7.8,46,0.00,,---,0.00,VWS V14.01,2013-03-29 09:11:00,
2013-03-29 04:15:00,54.3,35.1,29.56,NW,315,7.8,7.8,48,0.00,,---,0.00,VWS V14.01,2013-03-29 09:15:00,
2013-03-29 04:16:00,55.6,35.2,29.59,NW,315,7.8,7.8,46,0.00,,---,0.00,VWS V14.01,2013-03-29 09:16:00,
2013-03-29 04:20:00,54.1,34.9,29.56,NW,315,7.8,7.8,48,0.00,,---,0.00,VWS V14.01,2013-03-29 09:20:00,
2013-03-29 04:22:00,55.6,34.6,29.59,NW,315,7.8,7.8,45,0.00,,---,0.00,VWS V14.01,2013-03-29 09:22:00,
2013-03-29 04:25:00,54.1,34.9,29.56,NW,315,7.8,7.8,48,0.00,,---,0.00,VWS V14.01,2013-03-29 09:25:00,
2013-03-29 04:27:00,55.4,34.4,29.59,NW,315,7.8,7.8,45,0.00,,---,0.00,VWS V14.01,2013-03-29 09:27:00,
2013-03-29 04:30:00,54.1,34.9,29.56,NW,315,7.8,7.8,48,0.00,,---,0.00,VWS V14.01,2013-03-29 09:30:00,
2013-03-29 04:32:00,55.4,34.4,29.56,NW,315,7.8,7.8,45,0.00,,---,0.00,VWS V14.01,2013-03-29 09:32:00,
2013-03-29 04:35:00,54.0,34.7,29.59,NW,315,7.8,7.8,48,0.00,,---,0.00,VWS V14.01,2013-03-29 09:35:00,
2013-03-29 04:37:00,55.2,34.8,29.56,NW,315,7.8,7.8,46,0.00,,---,0.00,VWS V14.01,2013-03-29 09:37:00,
2013-03-29 04:40:00,54.0,34.7,29.59,NW,315,7.8,7.8,48,0.00,,---,0.00,VWS V14.01,2013-03-29 09:40:00,
2013-03-29 04:42:00,55.0,35.2,29.56,NW,315,7.8,7.8,47,0.00,,---,0.00,VWS V14.01,2013-03-29 09:42:00,
2013-03-29 04:45:00,54.0,38.2,29.59,NW,315,7.8,7.8,55,0.00,,---,0.00,VWS V14.01,2013-03-29 09:45:00,
2013-03-29 04:47:00,54.7,34.3,29.56,NW,315,7.8,7.8,46,0.00,,---,0.00,VWS V14.01,2013-03-29 09:47:00,
2013-03-29 04:50:00,53.6,36.9,29.56,NW,315,7.8,7.8,53,0.00,,---,0.00,VWS V14.01,2013-03-29 09:50:00,
2013-03-29 04:52:00,54.5,34.2,29.56,NW,315,7.8,7.8,46,0.00,,---,0.00,VWS V14.01,2013-03-29 09:52:00,
2013-03-29 04:55:00,53.6,35.9,29.56,NW,315,7.8,7.8,51,0.00,,---,0.00,VWS V14.01,2013-03-29 09:55:00,
2013-03-29 04:57:00,54.3,34.0,29.56,NW,315,7.8,7.8,46,0.00,,---,0.00,VWS V14.01,2013-03-29 09:57:00,
2013-03-29 05:00:00,53.6,36.4,29.56,NW,315,7.8,7.8,52,0.00,,---,0.00,VWS V14.01,2013-03-29 10:00:00,
2013-03-29 05:03:00,54.3,34.5,29.56,NW,315,7.8,7.8,47,0.00,,---,0.00,VWS V14.01,2013-03-29 10:03:00,
2013-03-29 05:05:00,53.6,36.9,29.56,NW,315,7.8,7.8,53,0.00,,---,0.00,VWS V14.01,2013-03-29 10:05:00,
2013-03-29 05:08:00,54.3,34.5,29.56,NW,315,7.8,7.8,47,0.00,,---,0.00,VWS V14.01,2013-03-29 10:08:00,
2013-03-29 05:10:00,53.6,39.6,29.56,NW,315,7.8,7.8,59,0.00,,---,0.00,VWS V14.01,2013-03-29 10:10:00,
2013-03-29 05:13:00,54.3,34.5,29.56,NW,315,7.8,7.8,47,0.00,,---,0.00,VWS V14.01,2013-03-29 10:13:00,
2013-03-29 05:15:00,53.2,39.7,29.56,NW,315,7.8,7.8,60,0.00,,---,0.00,VWS V14.01,2013-03-29 10:15:00,
2013-03-29 05:18:00,54.1,34.9,29.56,NW,315,7.8,7.8,48,0.00,,---,0.00,VWS V14.01,2013-03-29 10:18:00,
2013-03-29 05:20:00,53.1,40.4,29.56,NW,315,7.8,7.8,62,0.00,,---,0.00,VWS V14.01,2013-03-29 10:20:00,
2013-03-29 05:23:00,54.1,34.9,29.56,NW,315,7.8,7.8,48,0.00,,---,0.00,VWS V14.01,2013-03-29 10:23:00,
2013-03-29 05:25:00,53.1,39.1,29.56,NW,315,7.8,7.8,59,0.00,,---,0.00,VWS V14.01,2013-03-29 10:25:00,
2013-03-29 05:28:00,54.1,34.9,29.56,NW,315,7.8,7.8,48,0.00,,---,0.00,VWS V14.01,2013-03-29 10:28:00,
2013-03-29 05:30:00,52.9,41.5,29.56,NW,315,7.8,7.8,65,0.00,,---,0.00,VWS V14.01,2013-03-29 10:30:00,
2013-03-29 05:33:00,54.0,34.7,29.59,NW,315,7.8,7.8,48,0.00,,---,0.00,VWS V14.01,2013-03-29 10:33:00,
2013-03-29 05:35:00,53.1,39.1,29.56,NW,315,7.8,7.8,59,0.00,,---,0.00,VWS V14.01,2013-03-29 10:35:00,
2013-03-29 05:38:00,54.0,34.7,29.59,NW,315,7.8,7.8,48,0.00,,---,0.00,VWS V14.01,2013-03-29 10:38:00,
2013-03-29 05:40:00,53.1,38.7,29.56,NW,315,7.8,7.8,58,0.00,,---,0.00,VWS V14.01,2013-03-29 10:40:00,
2013-03-29 05:43:00,54.0,38.2,29.59,NW,315,7.8,7.8,55,0.00,,---,0.00,VWS V14.01,2013-03-29 10:43:00,
2013-03-29 05:45:00,52.9,38.5,29.56,NW,315,7.8,7.8,58,0.00,,---,0.00,VWS V14.01,2013-03-29 10:45:00,
2013-03-29 05:49:00,53.6,36.9,29.56,NW,315,7.8,7.8,53,0.00,,---,0.00,VWS V14.01,2013-03-29 10:49:00,
2013-03-29 05:50:00,52.9,38.1,29.56,NW,315,7.8,7.8,57,0.00,,---,0.00,VWS V14.01,2013-03-29 10:50:00,
2013-03-29 05:54:00,53.6,36.4,29.56,NW,315,7.8,7.8,52,0.00,,---,0.00,VWS V14.01,2013-03-29 10:54:00,
2013-03-29 05:55:00,52.7,41.7,29.56,NW,315,7.8,7.8,66,0.00,,---,0.00,VWS V14.01,2013-03-29 10:55:00,
2013-03-29 05:59:00,53.6,37.4,29.56,NW,315,7.8,7.8,54,0.00,,---,0.00,VWS V14.01,2013-03-29 10:59:00,
2013-03-29 06:04:00,53.6,36.9,29.56,NW,315,7.8,7.8,53,0.00,,---,0.00,VWS V14.01,2013-03-29 11:04:00,
2013-03-29 06:05:00,52.3,42.9,29.59,West,270,12.3,12.3,70,0.13,,---,0.13,VWS V14.01,2013-03-29 11:05:00,
2013-03-29 06:06:00,52.2,42.7,29.59,West,270,12.3,12.3,70,0.17,,---,0.17,VWS V14.01,2013-03-29 11:06:00,
2013-03-29 06:07:00,52.2,43.4,29.59,West,270,12.3,12.3,72,0.17,,---,0.17,VWS V14.01,2013-03-29 11:07:00,
2013-03-29 06:08:00,52.0,43.6,29.59,West,270,12.3,12.3,73,0.17,,---,0.17,VWS V14.01,2013-03-29 11:08:00,
2013-03-29 06:09:00,53.6,39.6,29.56,NW,315,7.8,7.8,59,0.00,,---,0.00,VWS V14.01,2013-03-29 11:09:00,
2013-03-29 06:10:00,52.0,44.0,29.59,West,270,12.3,12.3,74,0.17,,---,0.17,VWS V14.01,2013-03-29 11:10:00,
2013-03-29 06:12:00,52.0,43.6,29.59,West,270,12.3,12.3,73,0.17,,---,0.17,VWS V14.01,2013-03-29 11:12:00,
2013-03-29 06:13:00,51.8,43.1,29.59,West,270,12.3,12.3,72,0.17,,---,0.17,VWS V14.01,2013-03-29 11:13:00,
2013-03-29 06:14:00,53.2,39.7,29.56,NW,315,7.8,7.8,60,0.00,,---,0.00,VWS V14.01,2013-03-29 11:14:00,
2013-03-29 06:15:00,51.6,42.9,29.59,West,270,12.3,12.3,72,0.17,,---,0.17,VWS V14.01,2013-03-29 11:15:00,
2013-03-29 06:16:00,51.6,42.9,29.59,West,270,12.3,12.3,72,0.17,,---,0.17,VWS V14.01,2013-03-29 11:16:00,
2013-03-29 06:17:00,51.8,43.1,29.59,West,270,12.3,12.3,72,0.17,,---,0.17,VWS V14.01,2013-03-29 11:17:00,
2013-03-29 06:18:00,51.8,43.1,29.56,West,270,12.3,12.3,72,0.17,,---,0.17,VWS V14.01,2013-03-29 11:18:00,
2013-03-29 06:19:00,53.1,40.4,29.56,NW,315,7.8,7.8,62,0.00,,---,0.00,VWS V14.01,2013-03-29 11:19:00,
2013-03-29 06:20:00,51.6,42.9,29.56,West,270,12.3,12.3,72,0.17,,---,0.17,VWS V14.01,2013-03-29 11:20:00,
2013-03-29 06:21:00,51.6,42.9,29.56,West,270,12.3,12.3,72,0.17,,---,0.17,VWS V14.01,2013-03-29 11:21:00,
2013-03-29 06:22:00,51.6,42.9,29.56,West,270,12.3,12.3,72,0.17,,---,0.17,VWS V14.01,2013-03-29 11:22:00,
2013-03-29 06:23:00,51.6,42.9,29.56,West,270,12.3,12.3,72,0.17,,---,0.17,VWS V14.01,2013-03-29 11:23:00,
2013-03-29 06:24:00,51.4,42.7,29.56,West,270,12.3,12.3,72,0.17,,---,0.17,VWS V14.01,2013-03-29 11:24:00,
2013-03-29 06:25:00,53.1,38.2,29.56,NW,315,7.8,7.8,57,0.00,,---,0.00,VWS V14.01,2013-03-29 11:25:00,
2013-03-29 06:26:00,51.4,42.7,29.56,West,270,12.3,12.3,72,0.17,,---,0.17,VWS V14.01,2013-03-29 11:26:00,
2013-03-29 06:27:00,51.4,42.7,29.56,West,270,12.3,12.3,72,0.17,,---,0.17,VWS V14.01,2013-03-29 11:27:00,
2013-03-29 06:28:00,51.3,42.5,29.56,West,270,12.3,12.3,72,0.17,,---,0.17,VWS V14.01,2013-03-29 11:28:00,
2013-03-29 06:29:00,51.3,42.5,29.56,West,270,12.3,12.3,72,0.17,,---,0.17,VWS V14.01,2013-03-29 11:29:00,
2013-03-29 06:30:00,53.1,39.6,29.56,NW,315,7.8,7.8,60,0.00,,---,0.00,VWS V14.01,2013-03-29 11:30:00,
2013-03-29 06:31:00,51.4,42.7,29.56,West,270,12.3,12.3,72,0.17,,---,0.17,VWS V14.01,2013-03-29 11:31:00,
2013-03-29 06:32:00,51.6,44.0,29.56,West,270,12.3,12.3,75,0.17,,---,0.17,VWS V14.01,2013-03-29 11:32:00,
2013-03-29 06:33:00,51.6,44.3,29.56,West,270,12.3,12.3,76,0.17,,---,0.17,VWS V14.01,2013-03-29 11:33:00,
2013-03-29 06:34:00,51.6,44.7,29.56,West,270,12.3,12.3,77,0.17,,---,0.17,VWS V14.01,2013-03-29 11:34:00,
2013-03-29 06:35:00,53.1,39.1,29.56,NW,315,7.8,7.8,59,0.00,,---,0.00,VWS V14.01,2013-03-29 11:35:00,
2013-03-29 06:36:00,51.4,44.8,29.56,West,270,12.3,12.3,78,0.17,,---,0.17,VWS V14.01,2013-03-29 11:36:00,
2013-03-29 06:37:00,51.4,44.5,29.56,West,270,12.3,12.3,77,0.17,,---,0.17,VWS V14.01,2013-03-29 11:37:00,
2013-03-29 06:38:00,51.4,44.5,29.56,West,270,12.3,12.3,77,0.17,,---,0.17,VWS V14.01,2013-03-29 11:38:00,
2013-03-29 06:39:00,51.4,44.5,29.56,West,270,12.3,12.3,77,0.17,,---,0.17,VWS V14.01,2013-03-29 11:39:00,
2013-03-29 06:40:00,53.1,38.7,29.56,NW,315,7.8,7.8,58,0.00,,---,0.00,VWS V14.01,2013-03-29 11:40:00,
2013-03-29 06:41:00,51.4,44.1,29.56,West,270,12.3,12.3,76,0.17,,---,0.17,VWS V14.01,2013-03-29 11:41:00,
2013-03-29 06:43:00,51.4,44.1,29.56,West,270,12.3,12.3,76,0.17,,---,0.17,VWS V14.01,2013-03-29 11:43:00,
2013-03-29 06:44:00,51.6,45.0,29.56,West,270,12.3,12.3,78,0.17,,---,0.17,VWS V14.01,2013-03-29 11:44:00,
2013-03-29 06:45:00,52.9,38.1,29.56,NW,315,7.8,7.8,57,0.00,,---,0.00,VWS V14.01,2013-03-29 11:45:00,
2013-03-29 06:46:00,51.4,44.8,29.56,West,270,12.3,12.3,78,0.17,,---,0.17,VWS V14.01,2013-03-29 11:46:00,
2013-03-29 06:48:00,51.6,45.0,29.56,West,270,12.3,12.3,78,0.17,,---,0.17,VWS V14.01,2013-03-29 11:48:00,
2013-03-29 06:49:00,51.8,45.5,29.56,West,270,12.3,12.3,79,0.17,,---,0.17,VWS V14.01,2013-03-29 11:49:00,
2013-03-29 06:50:00,52.7,38.3,29.56,NW,315,7.8,7.8,58,0.00,,---,0.00,VWS V14.01,2013-03-29 11:50:00,
2013-03-29 06:51:00,51.8,45.8,29.56,West,270,12.3,12.3,80,0.17,,---,0.17,VWS V14.01,2013-03-29 11:51:00,
2013-03-29 06:52:00,51.6,45.7,29.56,West,270,12.3,12.3,80,0.17,,---,0.17,VWS V14.01,2013-03-29 11:52:00,
2013-03-29 06:53:00,51.6,45.7,29.56,West,270,12.3,12.3,80,0.17,,---,0.17,VWS V14.01,2013-03-29 11:53:00,
2013-03-29 06:55:00,52.5,42.7,29.56,NW,315,7.8,7.8,69,0.00,,---,0.00,VWS V14.01,2013-03-29 11:55:00,
2013-03-29 06:56:00,51.8,45.5,29.56,West,270,12.3,12.3,79,0.17,,---,0.17,VWS V14.01,2013-03-29 11:56:00,
2013-03-29 07:04:00,52.5,42.7,29.59,West,270,12.3,12.3,69,0.04,,---,0.04,VWS V14.01,2013-03-29 12:04:00,
2013-03-29 07:33:00,52.0,45.7,29.59,West,270,12.3,12.3,79,0.04,,---,0.21,VWS V14.01,2013-03-29 12:33:00,
2013-03-29 07:34:00,52.0,46.0,29.59,West,270,12.3,12.3,80,0.04,,---,0.21,VWS V14.01,2013-03-29 12:34:00,
2013-03-29 07:37:00,52.2,46.5,29.59,West,270,12.3,12.3,81,0.08,,---,0.25,VWS V14.01,2013-03-29 12:37:00,
2013-03-29 07:40:00,52.0,47.0,29.59,West,270,12.3,12.3,83,0.12,,---,0.29,VWS V14.01,2013-03-29 12:40:00,
2013-03-29 07:41:00,52.0,47.0,29.59,West,270,12.3,12.3,83,0.12,,---,0.29,VWS V14.01,2013-03-29 12:41:00,
2013-03-29 07:42:00,52.0,46.7,29.59,West,270,12.3,12.3,82,0.12,,---,0.29,VWS V14.01,2013-03-29 12:42:00,
2013-03-29 07:44:00,51.8,45.8,29.59,West,270,12.3,12.3,80,0.16,,---,0.33,VWS V14.01,2013-03-29 12:44:00,
2013-03-29 07:45:00,52.0,46.0,29.59,West,270,12.3,12.3,80,0.16,,---,0.33,VWS V14.01,2013-03-29 12:45:00,
2013-03-29 07:46:00,52.3,46.7,29.59,West,270,12.3,12.3,81,0.20,,---,0.37,VWS V14.01,2013-03-29 12:46:00,
2013-03-29 07:48:00,52.3,47.7,29.59,West,270,12.3,12.3,84,0.20,,---,0.37,VWS V14.01,2013-03-29 12:48:00,
2013-03-29 07:49:00,52.2,47.5,29.59,West,270,12.3,12.3,84,0.20,,---,0.37,VWS V14.01,2013-03-29 12:49:00,
2013-03-29 07:50:00,52.2,47.5,29.59,West,270,12.3,12.3,84,0.25,,---,0.42,VWS V14.01,2013-03-29 12:50:00,
2013-03-29 07:51:00,52.2,47.5,29.59,West,270,12.3,12.3,84,0.25,,---,0.42,VWS V14.01,2013-03-29 12:51:00,
2013-03-29 07:54:00,52.2,47.8,29.59,West,270,12.3,12.3,85,0.25,,---,0.42,VWS V14.01,2013-03-29 12:54:00,
2013-03-29 07:55:00,52.2,47.8,29.59,West,270,12.3,12.3,85,0.25,,---,0.42,VWS V14.01,2013-03-29 12:55:00,
2013-03-29 07:56:00,52.2,47.8,29.59,West,270,12.3,12.3,85,0.25,,---,0.42,VWS V14.01,2013-03-29 12:56:00,
2013-03-29 07:57:00,52.0,47.6,29.59,West,270,12.3,12.3,85,0.25,,---,0.42,VWS V14.01,2013-03-29 12:57:00,
2013-03-29 08:00:00,52.3,48.3,29.59,West,270,12.3,12.3,86,0.29,,---,0.46,VWS V14.01,2013-03-29 13:00:00,
2013-03-29 08:15:00,52.2,48.4,29.59,West,270,12.3,12.3,87,0.41,,---,0.58,VWS V14.01,2013-03-29 13:15:00,
2013-03-29 08:17:00,52.2,48.7,29.59,West,270,12.3,12.3,88,0.41,,---,0.58,VWS V14.01,2013-03-29 13:17:00,
2013-03-29 08:33:00,52.0,46.0,29.59,West,270,12.3,12.3,80,0.04,,---,0.21,VWS V14.01,2013-03-29 13:33:00,
2013-03-29 08:38:00,52.0,47.0,29.59,West,270,12.3,12.3,83,0.12,,---,0.29,VWS V14.01,2013-03-29 13:38:00,
2013-03-29 08:43:00,52.0,46.0,29.59,West,270,12.3,12.3,80,0.16,,---,0.33,VWS V14.01,2013-03-29 13:43:00,
2013-03-29 08:50:00,52.2,47.8,29.59,West,270,12.3,12.3,85,0.25,,---,0.42,VWS V14.01,2013-03-29 13:50:00,
2013-03-29 08:58:00,52.2,47.8,29.59,West,270,12.3,12.3,85,0.29,,---,0.46,VWS V14.01,2013-03-29 13:58:00,
2013-03-29 09:03:00,52.0,47.9,29.59,West,270,12.3,12.3,86,0.33,,---,0.50,VWS V14.01,2013-03-29 14:03:00,
2013-03-29 09:08:00,52.2,48.1,29.59,West,270,12.3,12.3,86,0.37,,---,0.54,VWS V14.01,2013-03-29 14:08:00,
2013-03-29 09:13:00,52.2,48.4,29.59,West,270,12.3,12.3,87,0.41,,---,0.58,VWS V14.01,2013-03-29 14:13:00,
2013-03-29 09:18:00,52.2,48.7,29.59,West,270,12.3,12.3,88,0.41,,---,0.58,VWS V14.01,2013-03-29 14:18:00,
2013-03-29 09:23:00,52.0,48.5,29.59,West,270,12.3,12.3,88,0.46,,---,0.63,VWS V14.01,2013-03-29 14:23:00,
2013-03-29 09:28:00,52.3,49.2,29.59,West,270,12.3,12.3,89,0.46,,---,0.63,VWS V14.01,2013-03-29 14:28:00,
2013-03-29 09:33:00,52.5,50.0,29.62,West,270,12.3,12.3,91,0.45,,---,0.66,VWS V14.01,2013-03-29 14:33:00,
2013-03-29 09:38:00,52.3,50.4,29.62,West,270,12.3,12.3,93,0.54,,---,0.75,VWS V14.01,2013-03-29 14:38:00,
2013-03-29 09:43:00,52.0,49.7,29.62,West,270,12.3,12.3,92,0.54,,---,0.83,VWS V14.01,2013-03-29 14:43:00,
2013-03-29 09:48:00,51.8,49.0,29.56,West,270,12.3,12.3,90,0.54,,---,0.87,VWS V14.01,2013-03-29 14:48:00,
2013-03-29 09:54:00,52.0,48.8,29.56,West,270,12.3,12.3,89,0.45,,---,0.87,VWS V14.01,2013-03-29 14:54:00,
2013-03-29 09:59:00,52.2,49.0,29.56,West,270,12.3,12.3,89,0.41,,---,0.87,VWS V14.01,2013-03-29 14:59:00,
2013-03-29 10:04:00,52.2,48.7,29.59,West,270,12.3,12.3,88,0.37,,---,0.87,VWS V14.01,2013-03-29 15:04:00,
2013-03-29 10:09:00,52.2,48.7,29.59,West,270,12.3,12.3,88,0.33,,---,0.87,VWS V14.01,2013-03-29 15:09:00,
2013-03-29 10:14:00,52.3,50.1,29.59,West,270,12.3,12.3,92,0.33,,---,0.91,VWS V14.01,2013-03-29 15:14:00,
2013-03-29 10:19:00,52.3,50.4,29.62,West,270,12.3,12.3,93,0.33,,---,0.91,VWS V14.01,2013-03-29 15:19:00,
2013-03-29 10:24:00,52.3,50.4,29.62,West,270,12.3,12.3,93,0.28,,---,0.91,VWS V14.01,2013-03-29 15:24:00,
2013-03-29 10:29:00,52.3,50.4,29.62,West,270,12.3,12.3,93,0.28,,---,0.91,VWS V14.01,2013-03-29 15:29:00,
2013-03-29 10:34:00,52.5,50.8,29.62,West,270,12.3,12.3,94,0.25,,---,0.91,VWS V14.01,2013-03-29 15:34:00,
2013-03-29 10:39:00,52.7,51.0,29.62,West,270,12.3,12.3,94,0.16,,---,0.91,VWS V14.01,2013-03-29 15:39:00,
2013-03-29 10:45:00,52.5,50.8,29.62,West,270,12.3,12.3,94,0.08,,---,0.91,VWS V14.01,2013-03-29 15:45:00,
2013-03-29 10:50:00,52.9,51.2,29.62,West,270,12.3,12.3,94,0.04,,---,0.91,VWS V14.01,2013-03-29 15:50:00,
2013-03-29 10:55:00,53.1,51.4,29.62,West,270,12.3,12.3,94,0.04,,---,0.91,VWS V14.01,2013-03-29 15:55:00,
2013-03-29 11:00:00,53.1,51.1,29.62,West,270,12.3,12.3,93,0.04,,---,0.91,VWS V14.01,2013-03-29 16:00:00,
2013-03-29 11:05:00,53.2,51.3,29.62,West,270,12.3,12.3,93,0.04,,---,0.91,VWS V14.01,2013-03-29 16:05:00,
2013-03-29 11:10:00,53.2,51.0,29.62,West,270,12.3,12.3,92,0.04,,---,0.91,VWS V14.01,2013-03-29 16:10:00,
2013-03-29 11:15:00,53.2,50.7,29.62,West,270,12.3,12.3,91,0.00,,---,0.91,VWS V14.01,2013-03-29 16:15:00,
2013-03-29 11:21:00,53.1,50.2,29.62,West,270,12.3,12.3,90,0.00,,---,0.91,VWS V14.01,2013-03-29 16:21:00,
2013-03-29 11:26:00,53.1,50.2,29.62,West,270,12.3,12.3,90,0.00,,---,0.91,VWS V14.01,2013-03-29 16:26:00,
2013-03-29 11:31:00,53.2,50.4,29.62,West,270,12.3,12.3,90,0.00,,---,0.91,VWS V14.01,2013-03-29 16:31:00,
2013-03-29 11:36:00,53.6,50.7,29.62,West,270,12.3,12.3,90,0.00,,---,0.91,VWS V14.01,2013-03-29 16:36:00,
2013-03-29 11:41:00,54.5,52.2,29.62,West,270,12.3,12.3,92,0.00,,---,0.91,VWS V14.01,2013-03-29 16:41:00,
2013-03-29 11:46:00,54.9,52.9,29.62,West,270,12.3,12.3,93,0.00,,---,0.91,VWS V14.01,2013-03-29 16:46:00,
2013-03-29 11:51:00,54.9,52.9,29.62,West,270,12.3,12.3,93,0.00,,---,0.91,VWS V14.01,2013-03-29 16:51:00,
2013-03-29 11:56:00,55.0,52.8,29.62,West,270,12.3,12.3,92,0.00,,---,0.91,VWS V14.01,2013-03-29 16:56:00,
2013-03-29 12:01:00,55.4,52.8,29.62,West,270,12.3,12.3,91,0.00,,---,0.91,VWS V14.01,2013-03-29 17:01:00,
2013-03-29 12:06:00,55.8,53.2,29.62,West,270,12.3,12.3,91,0.00,,---,0.91,VWS V14.01,2013-03-29 17:06:00,
2013-03-29 12:11:00,55.9,53.0,29.62,West,270,12.3,12.3,90,0.00,,---,0.91,VWS V14.01,2013-03-29 17:11:00,
2013-03-29 12:16:00,56.1,52.9,29.62,West,270,12.3,12.3,89,0.00,,---,0.91,VWS V14.01,2013-03-29 17:16:00,
2013-03-29 12:21:00,56.1,52.6,29.62,West,270,12.3,12.3,88,0.00,,---,0.91,VWS V14.01,2013-03-29 17:21:00,
2013-03-29 12:27:00,56.3,52.2,29.62,West,270,12.3,12.3,86,0.00,,---,0.91,VWS V14.01,2013-03-29 17:27:00,
2013-03-29 12:32:00,56.5,52.0,29.62,West,270,12.3,12.3,85,0.00,,---,0.91,VWS V14.01,2013-03-29 17:32:00,
2013-03-29 12:37:00,56.7,51.9,29.62,West,270,12.3,12.3,84,0.00,,---,0.91,VWS V14.01,2013-03-29 17:37:00,
2013-03-29 12:42:00,56.7,51.2,29.62,West,270,12.3,12.3,82,0.00,,---,0.91,VWS V14.01,2013-03-29 17:42:00,
2013-03-29 12:47:00,56.8,51.1,29.62,West,270,12.3,12.3,81,0.00,,---,0.91,VWS V14.01,2013-03-29 17:47:00,
2013-03-29 12:52:00,56.8,50.7,29.62,West,270,12.3,12.3,80,0.00,,---,0.91,VWS V14.01,2013-03-29 17:52:00,
2013-03-29 12:57:00,56.8,50.1,29.62,West,270,12.3,12.3,78,0.00,,---,0.91,VWS V14.01,2013-03-29 17:57:00,
2013-03-29 13:02:00,56.8,49.0,29.62,West,270,12.3,12.3,75,0.00,,---,0.91,VWS V14.01,2013-03-29 18:02:00,
2013-03-29 13:07:00,56.8,48.7,29.62,West,270,12.3,12.3,74,0.00,,---,0.91,VWS V14.01,2013-03-29 18:07:00,
2013-03-29 13:12:00,57.2,48.3,29.62,West,270,12.3,12.3,72,0.00,,---,0.91,VWS V14.01,2013-03-29 18:12:00,
2013-03-29 13:18:00,57.6,49.0,29.59,West,270,12.3,12.3,73,0.00,,---,0.91,VWS V14.01,2013-03-29 18:18:00,
2013-03-29 13:23:00,57.6,48.6,29.59,West,270,12.3,12.3,72,0.00,,---,0.91,VWS V14.01,2013-03-29 18:23:00,
2013-03-29 13:28:00,57.4,48.1,29.59,West,270,12.3,12.3,71,0.00,,---,0.91,VWS V14.01,2013-03-29 18:28:00,
2013-03-29 13:33:00,57.7,48.8,29.59,West,270,12.3,12.3,72,0.00,,---,0.91,VWS V14.01,2013-03-29 18:33:00,
2013-03-29 13:38:00,57.6,47.5,29.59,West,270,12.3,12.3,69,0.00,,---,0.91,VWS V14.01,2013-03-29 18:38:00,
2013-03-29 13:43:00,57.6,46.7,29.59,West,270,12.3,12.3,67,0.00,,---,0.91,VWS V14.01,2013-03-29 18:43:00,
2013-03-29 13:48:00,57.9,47.0,29.59,West,270,12.3,12.3,67,0.00,,---,0.91,VWS V14.01,2013-03-29 18:48:00,
2013-03-29 13:53:00,58.1,45.6,29.59,West,270,12.3,12.3,63,0.00,,---,0.91,VWS V14.01,2013-03-29 18:53:00,
2013-03-29 13:58:00,58.8,47.1,29.59,West,270,12.3,12.3,65,0.00,,---,0.91,VWS V14.01,2013-03-29 18:58:00,
2013-03-29 14:03:00,59.7,44.5,29.56,West,270,12.3,12.3,57,0.00,,---,0.91,VWS V14.01,2013-03-29 19:03:00,
2013-03-29 14:09:00,60.3,45.9,29.56,West,270,12.3,12.3,59,0.00,,---,0.91,VWS V14.01,2013-03-29 19:09:00,
2013-03-29 14:14:00,60.8,45.5,29.56,West,270,12.3,12.3,57,0.00,,---,0.91,VWS V14.01,2013-03-29 19:14:00,
2013-03-29 14:19:00,61.2,44.9,29.56,West,270,12.3,12.3,55,0.00,,---,0.91,VWS V14.01,2013-03-29 19:19:00,
2013-03-29 14:24:00,61.7,45.9,29.56,West,270,12.3,12.3,56,0.00,,---,0.91,VWS V14.01,2013-03-29 19:24:00,
2013-03-29 14:29:00,61.9,44.6,29.56,West,270,12.3,12.3,53,0.00,,---,0.91,VWS V14.01,2013-03-29 19:29:00,
2013-03-29 14:34:00,62.1,44.2,29.56,West,270,12.3,12.3,52,0.00,,---,0.91,VWS V14.01,2013-03-29 19:34:00,
2013-03-29 14:39:00,62.2,43.9,29.56,West,270,12.3,12.3,51,0.00,,---,0.91,VWS V14.01,2013-03-29 19:39:00,
2013-03-29 14:44:00,62.6,44.2,29.56,West,270,12.3,12.3,51,0.00,,---,0.91,VWS V14.01,2013-03-29 19:44:00,
2013-03-29 14:49:00,62.6,43.2,29.56,West,270,12.3,12.3,49,0.00,,---,0.91,VWS V14.01,2013-03-29 19:49:00,
2013-03-29 14:54:00,62.8,42.8,29.56,West,270,12.3,12.3,48,0.00,,---,0.91,VWS V14.01,2013-03-29 19:54:00,
2013-03-29 14:59:00,63.3,44.4,29.56,West,270,12.3,12.3,50,0.00,,---,0.91,VWS V14.01,2013-03-29 19:59:00,
2013-03-29 15:04:00,63.5,44.5,29.56,West,270,12.3,12.3,50,0.00,,---,0.91,VWS V14.01,2013-03-29 20:04:00,
2013-03-29 15:09:00,63.0,42.4,29.56,West,270,12.3,12.3,47,0.00,,---,0.91,VWS V14.01,2013-03-29 20:09:00,
2013-03-29 15:15:00,63.3,42.8,29.56,West,270,12.3,12.3,47,0.00,,---,0.91,VWS V14.01,2013-03-29 20:15:00,
2013-03-29 15:20:00,63.1,42.6,29.53,West,270,12.3,12.3,47,0.00,,---,0.91,VWS V14.01,2013-03-29 20:20:00,
2013-03-29 15:25:00,63.1,42.6,29.53,West,270,12.3,12.3,47,0.00,,---,0.91,VWS V14.01,2013-03-29 20:25:00,
2013-03-29 15:30:00,63.1,43.7,29.53,West,270,12.3,12.3,49,0.00,,---,0.91,VWS V14.01,2013-03-29 20:30:00,
2013-03-29 15:35:00,63.3,42.8,29.56,West,270,12.3,12.3,47,0.00,,---,0.91,VWS V14.01,2013-03-29 20:35:00,
2013-03-29 15:40:00,63.1,42.0,29.56,West,270,12.3,12.3,46,0.00,,---,0.91,VWS V14.01,2013-03-29 20:40:00,
2013-03-29 15:45:00,63.5,42.4,29.56,West,270,12.3,12.3,46,0.00,,---,0.91,VWS V14.01,2013-03-29 20:45:00,
2013-03-29 15:50:00,63.7,43.1,29.56,West,270,12.3,12.3,47,0.00,,---,0.91,VWS V14.01,2013-03-29 20:50:00,
2013-03-29 15:55:00,63.9,43.3,29.56,West,270,12.3,12.3,47,0.00,,---,0.91,VWS V14.01,2013-03-29 20:55:00,
2013-03-29 16:00:00,63.9,44.3,29.56,West,270,12.3,12.3,49,0.00,,---,0.91,VWS V14.01,2013-03-29 21:00:00,
2013-03-29 16:05:00,63.5,42.4,29.56,West,270,12.3,12.3,46,0.00,,---,0.91,VWS V14.01,2013-03-29 21:05:00,
2013-03-29 16:10:00,63.5,42.4,29.56,West,270,12.3,12.3,46,0.00,,---,0.91,VWS V14.01,2013-03-29 21:10:00,
2013-03-29 16:15:00,63.3,42.2,29.56,West,270,12.3,12.3,46,0.00,,---,0.91,VWS V14.01,2013-03-29 21:15:00,
2013-03-29 16:21:00,63.3,42.8,29.56,West,270,12.3,12.3,47,0.00,,---,0.91,VWS V14.01,2013-03-29 21:21:00,
2013-03-29 16:26:00,63.1,42.6,29.56,West,270,12.3,12.3,47,0.00,,---,0.91,VWS V14.01,2013-03-29 21:26:00,
2013-03-29 16:32:00,63.0,42.4,29.56,West,270,12.3,12.3,47,0.00,,---,0.91,VWS V14.01,2013-03-29 21:32:00,
2013-03-29 16:37:00,63.1,42.6,29.56,West,270,12.3,12.3,47,0.00,,---,0.91,VWS V14.01,2013-03-29 21:37:00,
2013-03-29 16:42:00,63.1,43.2,29.56,West,270,12.3,12.3,48,0.00,,---,0.91,VWS V14.01,2013-03-29 21:42:00,
2013-03-29 16:47:00,63.0,42.4,29.56,West,270,12.3,12.3,47,0.00,,---,0.91,VWS V14.01,2013-03-29 21:47:00,
2013-03-29 16:52:00,63.1,43.7,29.56,West,270,12.3,12.3,49,0.00,,---,0.91,VWS V14.01,2013-03-29 21:52:00,
2013-03-29 16:57:00,63.0,43.5,29.56,West,270,12.3,12.3,49,0.00,,---,0.91,VWS V14.01,2013-03-29 21:57:00,
2013-03-29 17:02:00,62.8,42.8,29.56,West,270,12.3,12.3,48,0.00,,---,0.91,VWS V14.01,2013-03-29 22:02:00,
2013-03-29 17:07:00,62.8,44.4,29.56,West,270,12.3,12.3,51,0.00,,---,0.91,VWS V14.01,2013-03-29 22:07:00,
2013-03-29 17:12:00,63.0,44.0,29.56,West,270,12.3,12.3,50,0.00,,---,0.91,VWS V14.01,2013-03-29 22:12:00,
2013-03-29 17:17:00,63.0,44.0,29.53,West,270,12.3,12.3,50,0.00,,---,0.91,VWS V14.01,2013-03-29 22:17:00,
2013-03-29 17:23:00,63.0,43.5,29.53,West,270,12.3,12.3,49,0.00,,---,0.91,VWS V14.01,2013-03-29 22:23:00,
2013-03-29 17:28:00,63.0,43.5,29.53,West,270,12.3,12.3,49,0.00,,---,0.91,VWS V14.01,2013-03-29 22:28:00,
2013-03-29 17:33:00,62.8,42.8,29.53,West,270,12.3,12.3,48,0.00,,---,0.91,VWS V14.01,2013-03-29 22:33:00,
2013-03-29 17:38:00,62.8,42.8,29.53,West,270,12.3,12.3,48,0.00,,---,0.91,VWS V14.01,2013-03-29 22:38:00,
2013-03-29 17:43:00,62.6,42.7,29.53,West,270,12.3,12.3,48,0.00,,---,0.91,VWS V14.01,2013-03-29 22:43:00,
2013-03-29 17:48:00,62.6,43.7,29.56,West,270,12.3,12.3,50,0.00,,---,0.91,VWS V14.01,2013-03-29 22:48:00,
2013-03-29 17:53:00,62.6,43.7,29.56,West,270,12.3,12.3,50,0.00,,---,0.91,VWS V14.01,2013-03-29 22:53:00,
2013-03-29 17:58:00,62.8,43.9,29.56,West,270,12.3,12.3,50,0.00,,---,0.91,VWS V14.01,2013-03-29 22:58:00,
2013-03-29 18:03:00,62.6,44.8,29.56,West,270,12.3,12.3,52,0.00,,---,0.91,VWS V14.01,2013-03-29 23:03:00,
2013-03-29 18:09:00,62.6,44.2,29.56,West,270,12.3,12.3,51,0.00,,---,0.91,VWS V14.01,2013-03-29 23:09:00,
2013-03-29 18:14:00,62.6,45.2,29.56,West,270,12.3,12.3,53,0.00,,---,0.91,VWS V14.01,2013-03-29 23:14:00,
2013-03-29 18:19:00,62.4,45.1,29.56,West,270,12.3,12.3,53,0.00,,---,0.91,VWS V14.01,2013-03-29 23:19:00,
2013-03-29 18:24:00,62.4,44.6,29.56,West,270,12.3,12.3,52,0.00,,---,0.91,VWS V14.01,2013-03-29 23:24:00,
2013-03-29 18:29:00,62.2,44.4,29.56,West,270,12.3,12.3,52,0.00,,---,0.91,VWS V14.01,2013-03-29 23:29:00,
2013-03-29 18:34:00,62.2,44.4,29.53,West,270,12.3,12.3,52,0.00,,---,0.91,VWS V14.01,2013-03-29 23:34:00,
2013-03-29 18:39:00,62.2,44.9,29.53,West,270,12.3,12.3,53,0.00,,---,0.91,VWS V14.01,2013-03-29 23:39:00,
2013-03-29 18:44:00,61.9,44.6,29.53,West,270,12.3,12.3,53,0.00,,---,0.91,VWS V14.01,2013-03-29 23:44:00,
2013-03-29 18:49:00,61.9,44.1,29.53,West,270,12.3,12.3,52,0.00,,---,0.91,VWS V14.01,2013-03-29 23:49:00,
2013-03-29 18:54:00,61.5,44.2,29.53,West,270,12.3,12.3,53,0.00,,---,0.91,VWS V14.01,2013-03-29 23:54:00,
2013-03-29 18:59:00,61.5,44.2,29.53,West,270,12.3,12.3,53,0.00,,---,0.91,VWS V14.01,2013-03-29 23:59:00,
2013-03-29 19:04:00,61.2,44.9,29.53,West,270,12.3,12.3,55,0.00,,---,0.91,VWS V14.01,2013-03-30 00:04:00,
2013-03-29 19:09:00,61.2,44.9,29.53,West,270,12.3,12.3,55,0.00,,---,0.91,VWS V14.01,2013-03-30 00:09:00,
2013-03-29 19:15:00,61.0,45.2,29.53,West,270,12.3,12.3,56,0.00,,---,0.91,VWS V14.01,2013-03-30 00:15:00,
2013-03-29 19:20:00,61.0,45.2,29.53,West,270,12.3,12.3,56,0.00,,---,0.91,VWS V14.01,2013-03-30 00:20:00,
2013-03-29 19:25:00,60.8,46.0,29.53,West,270,12.3,12.3,58,0.00,,---,0.91,VWS V14.01,2013-03-30 00:25:00,
2013-03-29 19:30:00,60.6,45.8,29.53,West,270,12.3,12.3,58,0.00,,---,0.91,VWS V14.01,2013-03-30 00:30:00,
2013-03-29 19:35:00,60.4,48.2,29.56,West,270,12.3,12.3,64,0.00,,---,0.91,VWS V14.01,2013-03-30 00:35:00,
2013-03-29 19:40:00,60.3,47.2,29.56,West,270,12.3,12.3,62,0.00,,---,0.91,VWS V14.01,2013-03-30 00:40:00,
2013-03-29 19:45:00,60.3,47.2,29.56,West,270,12.3,12.3,62,0.00,,---,0.91,VWS V14.01,2013-03-30 00:45:00,
2013-03-29 19:50:00,60.1,49.1,29.56,West,270,12.3,12.3,67,0.00,,---,0.91,VWS V14.01,2013-03-30 00:50:00,
2013-03-29 19:55:00,60.1,48.7,29.56,West,270,12.3,12.3,66,0.00,,---,0.91,VWS V14.01,2013-03-30 00:55:00,
2013-03-29 20:00:00,59.9,49.3,29.56,West,270,12.3,12.3,68,0.00,,---,0.91,VWS V14.01,2013-03-30 01:00:00,
2013-03-29 20:06:00,59.5,49.8,29.53,West,270,12.3,12.3,70,0.00,,---,0.91,VWS V14.01,2013-03-30 01:06:00,
2013-03-29 20:11:00,59.4,48.8,29.53,West,270,12.3,12.3,68,0.00,,---,0.91,VWS V14.01,2013-03-30 01:11:00,
2013-03-29 20:17:00,59.2,48.6,29.53,West,270,12.3,12.3,68,0.00,,---,0.91,VWS V14.01,2013-03-30 01:17:00,
2013-03-29 20:22:00,59.2,49.0,29.53,West,270,12.3,12.3,69,0.00,,---,0.91,VWS V14.01,2013-03-30 01:22:00,
2013-03-29 20:27:00,59.0,48.5,29.53,West,270,12.3,12.3,68,0.00,,---,0.91,VWS V14.01,2013-03-30 01:27:00,
2013-03-29 20:32:00,58.8,49.1,29.56,West,270,12.3,12.3,70,0.00,,---,0.91,VWS V14.01,2013-03-30 01:32:00,
2013-03-29 20:37:00,58.8,48.7,29.56,West,270,12.3,12.3,69,0.00,,---,0.91,VWS V14.01,2013-03-30 01:37:00,
2013-03-29 20:43:00,58.8,48.7,29.56,West,270,12.3,12.3,69,0.00,,---,0.91,VWS V14.01,2013-03-30 01:43:00,
2013-03-29 20:48:00,58.6,48.5,29.56,West,270,12.3,12.3,69,0.00,,---,0.91,VWS V14.01,2013-03-30 01:48:00,
2013-03-29 20:53:00,58.6,48.9,29.56,West,270,12.3,12.3,70,0.00,,---,0.91,VWS V14.01,2013-03-30 01:53:00,
2013-03-29 20:58:00,58.5,49.5,29.56,West,270,12.3,12.3,72,0.00,,---,0.91,VWS V14.01,2013-03-30 01:58:00,
2013-03-29 21:03:00,58.3,48.9,29.56,West,270,12.3,12.3,71,0.00,,---,0.91,VWS V14.01,2013-03-30 02:03:00,
2013-03-29 21:08:00,58.3,48.9,29.56,West,270,12.3,12.3,71,0.00,,---,0.91,VWS V14.01,2013-03-30 02:08:00,
2013-03-29 21:13:00,58.3,48.9,29.56,West,270,12.3,12.3,71,0.00,,---,0.91,VWS V14.01,2013-03-30 02:13:00,
2013-03-29 21:18:00,58.3,48.9,29.53,West,270,12.3,12.3,71,0.00,,---,0.91,VWS V14.01,2013-03-30 02:18:00,
2013-03-29 21:23:00,58.3,48.9,29.53,West,270,12.3,12.3,71,0.00,,---,0.91,VWS V14.01,2013-03-30 02:23:00,
2013-03-29 21:28:00,58.5,49.5,29.53,West,270,12.3,12.3,72,0.00,,---,0.91,VWS V14.01,2013-03-30 02:28:00,
2013-03-29 21:33:00,58.3,49.3,29.56,West,270,12.3,12.3,72,0.00,,---,0.91,VWS V14.01,2013-03-30 02:33:00,
2013-03-29 21:38:00,58.5,49.8,29.56,West,270,12.3,12.3,73,0.00,,---,0.91,VWS V14.01,2013-03-30 02:38:00,
2013-03-29 21:43:00,58.5,49.8,29.56,West,270,12.3,12.3,73,0.00,,---,0.91,VWS V14.01,2013-03-30 02:43:00,
2013-03-29 21:48:00,58.5,49.8,29.56,West,270,12.3,12.3,73,0.00,,---,0.91,VWS V14.01,2013-03-30 02:48:00,
2013-03-29 21:53:00,58.5,49.5,29.56,West,270,12.3,12.3,72,0.00,,---,0.91,VWS V14.01,2013-03-30 02:53:00,
2013-03-29 21:58:00,58.5,49.5,29.56,West,270,12.3,12.3,72,0.00,,---,0.91,VWS V14.01,2013-03-30 02:58:00,
2013-03-29 22:01:00,58.6,49.7,29.56,West,270,12.3,12.3,72,0.00,,---,0.91,VWS V14.01,2013-03-30 03:01:00,
2013-03-29 22:02:00,58.5,49.1,29.56,West,270,12.3,12.3,71,0.00,,---,0.91,VWS V14.01,2013-03-30 03:02:00,
2013-03-29 22:03:00,58.5,49.5,29.56,West,270,12.3,12.3,72,0.00,,---,0.91,VWS V14.01,2013-03-30 03:03:00,
2013-03-29 22:04:00,58.5,49.1,29.56,West,270,12.3,12.3,71,0.00,,---,0.91,VWS V14.01,2013-03-30 03:04:00,
2013-03-29 22:05:00,58.5,49.1,29.56,West,270,12.3,12.3,71,0.00,,---,0.91,VWS V14.01,2013-03-30 03:05:00,
2013-03-29 22:06:00,58.5,49.1,29.56,West,270,12.3,12.3,71,0.00,,---,0.91,VWS V14.01,2013-03-30 03:06:00,
2013-03-29 22:07:00,58.5,49.5,29.56,West,270,12.3,12.3,72,0.00,,---,0.91,VWS V14.01,2013-03-30 03:07:00,
2013-03-29 22:08:00,58.5,49.1,29.56,West,270,12.3,12.3,71,0.00,,---,0.91,VWS V14.01,2013-03-30 03:08:00,
2013-03-29 22:09:00,58.6,49.7,29.56,West,270,12.3,12.3,72,0.00,,---,0.91,VWS V14.01,2013-03-30 03:09:00,
2013-03-29 22:10:00,58.5,49.1,29.56,West,270,12.3,12.3,71,0.00,,---,0.91,VWS V14.01,2013-03-30 03:10:00,
2013-03-29 22:11:00,58.5,49.1,29.56,West,270,12.3,12.3,71,0.00,,---,0.91,VWS V14.01,2013-03-30 03:11:00,
2013-03-29 22:12:00,58.5,49.1,29.56,West,270,12.3,12.3,71,0.00,,---,0.91,VWS V14.01,2013-03-30 03:12:00,
2013-03-29 22:13:00,58.5,49.1,29.56,West,270,12.3,12.3,71,0.00,,---,0.91,VWS V14.01,2013-03-30 03:13:00,
2013-03-29 22:14:00,58.6,49.7,29.56,West,270,12.3,12.3,72,0.00,,---,0.91,VWS V14.01,2013-03-30 03:14:00,
2013-03-29 22:15:00,58.5,49.5,29.56,West,270,12.3,12.3,72,0.00,,---,0.91,VWS V14.01,2013-03-30 03:15:00,
2013-03-29 22:16:00,58.5,49.5,29.56,West,270,12.3,12.3,72,0.00,,---,0.91,VWS V14.01,2013-03-30 03:16:00,
2013-03-29 22:17:00,58.5,49.5,29.56,West,270,12.3,12.3,72,0.00,,---,0.91,VWS V14.01,2013-03-30 03:17:00,
2013-03-29 22:18:00,58.5,49.5,29.56,West,270,12.3,12.3,72,0.00,,---,0.91,VWS V14.01,2013-03-30 03:18:00,
2013-03-29 22:19:00,58.6,49.7,29.56,West,270,12.3,12.3,72,0.00,,---,0.91,VWS V14.01,2013-03-30 03:19:00,
2013-03-29 22:20:00,58.5,49.5,29.56,West,270,12.3,12.3,72,0.00,,---,0.91,VWS V14.01,2013-03-30 03:20:00,
2013-03-29 22:21:00,58.5,49.5,29.56,West,270,12.3,12.3,72,0.00,,---,0.91,VWS V14.01,2013-03-30 03:21:00,
2013-03-29 22:22:00,58.5,49.5,29.56,West,270,12.3,12.3,72,0.00,,---,0.91,VWS V14.01,2013-03-30 03:22:00,
2013-03-29 22:23:00,58.5,49.5,29.56,West,270,12.3,12.3,72,0.00,,---,0.91,VWS V14.01,2013-03-30 03:23:00,
2013-03-29 22:24:00,58.6,49.3,29.56,West,270,12.3,12.3,71,0.00,,---,0.91,VWS V14.01,2013-03-30 03:24:00,
2013-03-29 22:25:00,58.5,49.5,29.56,West,270,12.3,12.3,72,0.00,,---,0.91,VWS V14.01,2013-03-30 03:25:00,
2013-03-29 22:26:00,58.5,49.5,29.56,West,270,12.3,12.3,72,0.00,,---,0.91,VWS V14.01,2013-03-30 03:26:00,
2013-03-29 22:27:00,58.5,49.5,29.56,West,270,12.3,12.3,72,0.00,,---,0.91,VWS V14.01,2013-03-30 03:27:00,
2013-03-29 22:28:00,58.5,49.5,29.56,West,270,12.3,12.3,72,0.00,,---,0.91,VWS V14.01,2013-03-30 03:28:00,
2013-03-29 22:29:00,58.8,49.5,29.56,West,270,12.3,12.3,71,0.00,,---,0.91,VWS V14.01,2013-03-30 03:29:00,
2013-03-29 22:30:00,58.5,49.5,29.56,West,270,12.3,12.3,72,0.00,,---,0.91,VWS V14.01,2013-03-30 03:30:00,
2013-03-29 22:31:00,58.5,49.5,29.56,West,270,12.3,12.3,72,0.00,,---,0.91,VWS V14.01,2013-03-30 03:31:00,
2013-03-29 22:32:00,58.5,49.5,29.56,West,270,12.3,12.3,72,0.00,,---,0.91,VWS V14.01,2013-03-30 03:32:00,
2013-03-29 22:33:00,58.5,49.5,29.56,West,270,12.3,12.3,72,0.00,,---,0.91,VWS V14.01,2013-03-30 03:33:00,
2013-03-29 22:34:00,58.6,49.3,29.56,West,270,12.3,12.3,71,0.00,,---,0.91,VWS V14.01,2013-03-30 03:34:00,
2013-03-29 22:35:00,58.5,49.5,29.56,West,270,12.3,12.3,72,0.00,,---,0.91,VWS V14.01,2013-03-30 03:35:00,
2013-03-29 22:36:00,58.5,49.5,29.56,West,270,12.3,12.3,72,0.00,,---,0.91,VWS V14.01,2013-03-30 03:36:00,
2013-03-29 22:37:00,58.5,49.5,29.56,West,270,12.3,12.3,72,0.00,,---,0.91,VWS V14.01,2013-03-30 03:37:00,
2013-03-29 22:38:00,58.5,49.5,29.56,West,270,12.3,12.3,72,0.00,,---,0.91,VWS V14.01,2013-03-30 03:38:00,
2013-03-29 22:39:00,58.6,49.3,29.56,West,270,12.3,12.3,71,0.00,,---,0.91,VWS V14.01,2013-03-30 03:39:00,
2013-03-29 22:40:00,58.3,49.3,29.56,West,270,12.3,12.3,72,0.00,,---,0.91,VWS V14.01,2013-03-30 03:40:00,
2013-03-29 22:41:00,58.3,49.3,29.56,West,270,12.3,12.3,72,0.00,,---,0.91,VWS V14.01,2013-03-30 03:41:00,
2013-03-29 22:42:00,58.3,49.3,29.56,West,270,12.3,12.3,72,0.00,,---,0.91,VWS V14.01,2013-03-30 03:42:00,
2013-03-29 22:44:00,58.8,49.5,29.56,West,270,12.3,12.3,71,0.00,,---,0.91,VWS V14.01,2013-03-30 03:44:00,
2013-03-29 22:45:00,58.3,49.3,29.56,West,270,12.3,12.3,72,0.00,,---,0.91,VWS V14.01,2013-03-30 03:45:00,
2013-03-29 22:46:00,58.3,49.3,29.56,West,270,12.3,12.3,72,0.00,,---,0.91,VWS V14.01,2013-03-30 03:46:00,
2013-03-29 22:47:00,58.3,49.3,29.56,West,270,12.3,12.3,72,0.00,,---,0.91,VWS V14.01,2013-03-30 03:47:00,
2013-03-29 22:48:00,58.1,49.1,29.56,West,270,12.3,12.3,72,0.00,,---,0.91,VWS V14.01,2013-03-30 03:48:00,
2013-03-29 22:49:00,58.6,49.3,29.56,West,270,12.3,12.3,71,0.00,,---,0.91,VWS V14.01,2013-03-30 03:49:00,
2013-03-29 22:50:00,58.1,49.1,29.56,West,270,12.3,12.3,72,0.00,,---,0.91,VWS V14.01,2013-03-30 03:50:00,
2013-03-29 22:51:00,58.1,49.1,29.56,West,270,12.3,12.3,72,0.00,,---,0.91,VWS V14.01,2013-03-30 03:51:00,
2013-03-29 22:52:00,58.1,49.1,29.56,West,270,12.3,12.3,72,0.00,,---,0.91,VWS V14.01,2013-03-30 03:52:00,
2013-03-29 22:53:00,58.1,49.1,29.56,West,270,12.3,12.3,72,0.00,,---,0.91,VWS V14.01,2013-03-30 03:53:00,
2013-03-29 22:54:00,58.1,49.1,29.56,West,270,12.3,12.3,72,0.00,,---,0.91,VWS V14.01,2013-03-30 03:54:00,
2013-03-29 22:55:00,58.6,49.3,29.56,West,270,12.3,12.3,71,0.00,,---,0.91,VWS V14.01,2013-03-30 03:55:00,
2013-03-29 22:56:00,58.1,49.1,29.56,West,270,12.3,12.3,72,0.00,,---,0.91,VWS V14.01,2013-03-30 03:56:00,
2013-03-29 22:57:00,58.1,49.1,29.56,West,270,12.3,12.3,72,0.00,,---,0.91,VWS V14.01,2013-03-30 03:57:00,
2013-03-29 22:58:00,58.1,49.1,29.56,West,270,12.3,12.3,72,0.00,,---,0.91,VWS V14.01,2013-03-30 03:58:00,
2013-03-29 22:59:00,58.1,49.1,29.56,West,270,12.3,12.3,72,0.00,,---,0.91,VWS V14.01,2013-03-30 03:59:00,
2013-03-29 23:00:00,58.1,49.1,29.56,West,270,12.3,12.3,72,0.00,,---,0.91,VWS V14.01,2013-03-30 04:00:00,
2013-03-29 23:03:00,57.9,49.0,29.56,West,270,12.3,12.3,72,0.00,,---,0.91,VWS V14.01,2013-03-30 04:03:00,
2013-03-29 23:04:00,57.9,49.0,29.56,West,270,12.3,12.3,72,0.00,,---,0.91,VWS V14.01,2013-03-30 04:04:00,
2013-03-29 23:05:00,57.9,49.0,29.56,West,270,12.3,12.3,72,0.00,,---,0.91,VWS V14.01,2013-03-30 04:05:00,
2013-03-29 23:07:00,57.9,49.0,29.56,West,270,12.3,12.3,72,0.00,,---,0.91,VWS V14.01,2013-03-30 04:07:00,
2013-03-29 23:08:00,57.9,49.0,29.56,West,270,12.3,12.3,72,0.00,,---,0.91,VWS V14.01,2013-03-30 04:08:00,
2013-03-29 23:10:00,57.9,49.0,29.56,West,270,12.3,12.3,72,0.00,,---,0.91,VWS V14.01,2013-03-30 04:10:00,
2013-03-29 23:12:00,57.9,49.0,29.56,West,270,12.3,12.3,72,0.00,,---,0.91,VWS V14.01,2013-03-30 04:12:00,
2013-03-29 23:15:00,57.9,49.0,29.56,West,270,12.3,12.3,72,0.00,,---,0.91,VWS V14.01,2013-03-30 04:15:00,
2013-03-29 23:18:00,57.7,48.8,29.56,West,270,12.3,12.3,72,0.00,,---,0.91,VWS V14.01,2013-03-30 04:18:00,
2013-03-29 23:20:00,57.7,48.8,29.56,West,270,12.3,12.3,72,0.00,,---,0.91,VWS V14.01,2013-03-30 04:20:00,
2013-03-29 23:21:00,57.7,48.8,29.56,West,270,12.3,12.3,72,0.00,,---,0.91,VWS V14.01,2013-03-30 04:21:00,
2013-03-29 23:53:00,58.1,49.1,29.56,West,270,12.3,12.3,72,0.00,,---,0.91,VWS V14.01,2013-03-30 04:53:00,
2013-03-29 23:59:00,58.1,49.1,29.56,West,270,12.3,12.3,72,0.00,,---,0.91,VWS V14.01,2013-03-30 04:59:00,